sensor_id;sensor_type;location;lat;lon;timestamp;pressure;altitude;pressure_sealevel;temperature;humidity
2711;BME280;20721;47.402;8.550;2023-04-29T00:00:58;95930;;;14.97;72.79
2711;BME280;20721;47.402;8.550;2023-04-29T00:02:00;95928;;;14.95;72.97
2711;BME280;20721;47.402;8.550;2023-04-29T00:03:00;95929;;;14.96;73.08
2711;BME280;20721;47.402;8.550;2023-04-29T00:03:58;95934;;;15.03;72.87
2711;BME280;20721;47.402;8.550;2023-04-29T00:04:58;95938;;;15.07;72.60
2711;BME280;20721;47.402;8.550;2023-04-29T00:05:59;95943;;;15.17;72.48
2711;BME280;20721;47.402;8.550;2023-04-29T00:06:58;95939;;;15.14;72.47
2711;BME280;20721;47.402;8.550;2023-04-29T00:07:58;95934;;;15.09;72.45
2711;BME280;20721;47.402;8.550;2023-04-29T00:08:58;95931;;;15.17;72.60
2711;BME280;20721;47.402;8.550;2023-04-29T00:09:58;95934;;;15.20;72.30
2711;BME280;20721;47.402;8.550;2023-04-29T00:10:58;95940;;;15.22;72.15
2711;BME280;20721;47.402;8.550;2023-04-29T00:11:58;95938;;;15.21;72.29
2711;BME280;20721;47.402;8.550;2023-04-29T00:12:58;95937;;;15.24;72.26
2711;BME280;20721;47.402;8.550;2023-04-29T00:13:58;95940;;;15.25;72.36
2711;BME280;20721;47.402;8.550;2023-04-29T00:14:59;95934;;;15.23;72.31
2711;BME280;20721;47.402;8.550;2023-04-29T00:15:58;95926;;;15.21;72.33
2711;BME280;20721;47.402;8.550;2023-04-29T00:16:58;95924;;;15.14;72.69
2711;BME280;20721;47.402;8.550;2023-04-29T00:17:58;95923;;;15.09;72.77
2711;BME280;20721;47.402;8.550;2023-04-29T00:18:58;95917;;;14.95;73.38
2711;BME280;20721;47.402;8.550;2023-04-29T00:19:58;95916;;;14.91;73.73
2711;BME280;20721;47.402;8.550;2023-04-29T00:21:58;95911;;;14.82;73.77
2711;BME280;20721;47.402;8.550;2023-04-29T00:22:58;95913;;;14.83;73.91
2711;BME280;20721;47.402;8.550;2023-04-29T00:23:59;95911;;;14.90;73.92
2711;BME280;20721;47.402;8.550;2023-04-29T00:24:58;95908;;;14.96;73.41
2711;BME280;20721;47.402;8.550;2023-04-29T00:25:58;95903;;;14.97;73.49
2711;BME280;20721;47.402;8.550;2023-04-29T00:26:58;95911;;;14.85;73.91
2711;BME280;20721;47.402;8.550;2023-04-29T00:28:00;95907;;;14.70;74.32
2711;BME280;20721;47.402;8.550;2023-04-29T00:28:58;95916;;;14.63;74.29
2711;BME280;20721;47.402;8.550;2023-04-29T00:30:58;95928;;;14.58;74.68
2711;BME280;20721;47.402;8.550;2023-04-29T00:31:58;95927;;;14.62;74.75
2711;BME280;20721;47.402;8.550;2023-04-29T00:32:58;95925;;;14.66;74.67
2711;BME280;20721;47.402;8.550;2023-04-29T00:33:58;95927;;;14.77;74.37
2711;BME280;20721;47.402;8.550;2023-04-29T00:34:58;95932;;;14.89;73.80
2711;BME280;20721;47.402;8.550;2023-04-29T00:35:58;95934;;;15.03;73.20
2711;BME280;20721;47.402;8.550;2023-04-29T00:36:58;95931;;;15.07;72.98
2711;BME280;20721;47.402;8.550;2023-04-29T00:37:58;95940;;;15.16;72.66
2711;BME280;20721;47.402;8.550;2023-04-29T00:39:00;95936;;;15.28;72.50
2711;BME280;20721;47.402;8.550;2023-04-29T00:39:58;95934;;;15.39;71.98
2711;BME280;20721;47.402;8.550;2023-04-29T00:40:58;95936;;;15.49;71.97
2711;BME280;20721;47.402;8.550;2023-04-29T00:41:58;95937;;;15.55;71.62
2711;BME280;20721;47.402;8.550;2023-04-29T00:42:58;95932;;;15.58;71.64
2711;BME280;20721;47.402;8.550;2023-04-29T00:43:58;95936;;;15.64;71.40
2711;BME280;20721;47.402;8.550;2023-04-29T00:44:58;95936;;;15.71;71.16
2711;BME280;20721;47.402;8.550;2023-04-29T00:45:58;95935;;;15.79;70.88
2711;BME280;20721;47.402;8.550;2023-04-29T00:46:59;95935;;;15.86;70.83
2711;BME280;20721;47.402;8.550;2023-04-29T00:47:58;95929;;;15.93;70.58
2711;BME280;20721;47.402;8.550;2023-04-29T00:48:59;95924;;;15.98;70.38
2711;BME280;20721;47.402;8.550;2023-04-29T00:49:58;95926;;;16.01;70.24
2711;BME280;20721;47.402;8.550;2023-04-29T00:50:58;95924;;;16.02;70.19
2711;BME280;20721;47.402;8.550;2023-04-29T00:51:58;95924;;;16.03;70.09
2711;BME280;20721;47.402;8.550;2023-04-29T00:52:59;95925;;;16.05;69.90
2711;BME280;20721;47.402;8.550;2023-04-29T00:53:58;95926;;;16.00;69.74
2711;BME280;20721;47.402;8.550;2023-04-29T00:54:58;95928;;;15.93;69.91
2711;BME280;20721;47.402;8.550;2023-04-29T00:56:00;95928;;;15.86;70.25
2711;BME280;20721;47.402;8.550;2023-04-29T00:56:59;95920;;;15.82;70.37
2711;BME280;20721;47.402;8.550;2023-04-29T00:57:58;95924;;;15.76;70.53
2711;BME280;20721;47.402;8.550;2023-04-29T00:59:58;95919;;;15.72;70.69
2711;BME280;20721;47.402;8.550;2023-04-29T01:00:58;95919;;;15.64;70.75
2711;BME280;20721;47.402;8.550;2023-04-29T01:01:59;95919;;;15.65;71.10
2711;BME280;20721;47.402;8.550;2023-04-29T01:02:58;95921;;;15.70;71.02
2711;BME280;20721;47.402;8.550;2023-04-29T01:03:59;95918;;;15.77;70.89
2711;BME280;20721;47.402;8.550;2023-04-29T01:04:58;95920;;;15.69;70.82
2711;BME280;20721;47.402;8.550;2023-04-29T01:06:04;95917;;;15.70;70.74
2711;BME280;20721;47.402;8.550;2023-04-29T01:07:15;95912;;;15.73;70.79
2711;BME280;20721;47.402;8.550;2023-04-29T01:11:02;95914;;;15.53;71.24
2711;BME280;20721;47.402;8.550;2023-04-29T01:13:59;95911;;;15.57;71.27
2711;BME280;20721;47.402;8.550;2023-04-29T01:15:02;95910;;;15.50;71.18
2711;BME280;20721;47.402;8.550;2023-04-29T01:16:03;95909;;;15.51;71.28
2711;BME280;20721;47.402;8.550;2023-04-29T01:16:59;95912;;;15.49;71.10
2711;BME280;20721;47.402;8.550;2023-04-29T01:18:00;95913;;;15.51;71.39
2711;BME280;20721;47.402;8.550;2023-04-29T01:18:58;95912;;;15.52;71.40
2711;BME280;20721;47.402;8.550;2023-04-29T01:19:58;95912;;;15.58;71.24
2711;BME280;20721;47.402;8.550;2023-04-29T01:20:58;95912;;;15.61;71.09
2711;BME280;20721;47.402;8.550;2023-04-29T01:21:58;95911;;;15.69;70.99
2711;BME280;20721;47.402;8.550;2023-04-29T01:22:58;95913;;;15.74;70.81
2711;BME280;20721;47.402;8.550;2023-04-29T01:23:58;95911;;;15.80;70.74
2711;BME280;20721;47.402;8.550;2023-04-29T01:24:58;95911;;;15.86;70.59
2711;BME280;20721;47.402;8.550;2023-04-29T01:25:58;95911;;;15.87;70.15
2711;BME280;20721;47.402;8.550;2023-04-29T01:27:01;95910;;;15.74;70.39
2711;BME280;20721;47.402;8.550;2023-04-29T01:31:03;95913;;;15.56;71.09
2711;BME280;20721;47.402;8.550;2023-04-29T01:32:08;95911;;;15.55;70.91
2711;BME280;20721;47.402;8.550;2023-04-29T01:34:04;95909;;;15.38;71.72
2711;BME280;20721;47.402;8.550;2023-04-29T01:35:03;95915;;;15.33;71.73
2711;BME280;20721;47.402;8.550;2023-04-29T01:37:03;95908;;;15.26;71.73
2711;BME280;20721;47.402;8.550;2023-04-29T01:40:04;95912;;;15.29;71.56
2711;BME280;20721;47.402;8.550;2023-04-29T01:41:01;95917;;;15.39;71.59
2711;BME280;20721;47.402;8.550;2023-04-29T01:43:00;95921;;;15.47;71.23
2711;BME280;20721;47.402;8.550;2023-04-29T01:43:58;95918;;;15.34;71.32
2711;BME280;20721;47.402;8.550;2023-04-29T01:44:59;95917;;;15.36;71.39
2711;BME280;20721;47.402;8.550;2023-04-29T01:45:59;95919;;;15.37;71.16
2711;BME280;20721;47.402;8.550;2023-04-29T01:46:58;95920;;;15.40;70.91
2711;BME280;20721;47.402;8.550;2023-04-29T01:47:58;95916;;;15.41;70.88
2711;BME280;20721;47.402;8.550;2023-04-29T01:48:58;95916;;;15.44;70.61
2711;BME280;20721;47.402;8.550;2023-04-29T01:49:58;95919;;;15.49;70.40
2711;BME280;20721;47.402;8.550;2023-04-29T01:50:58;95918;;;15.55;70.14
2711;BME280;20721;47.402;8.550;2023-04-29T01:51:58;95921;;;15.62;70.13
2711;BME280;20721;47.402;8.550;2023-04-29T01:53:00;95924;;;15.70;70.14
2711;BME280;20721;47.402;8.550;2023-04-29T01:53:58;95919;;;15.78;70.02
2711;BME280;20721;47.402;8.550;2023-04-29T01:54:58;95917;;;15.85;69.74
2711;BME280;20721;47.402;8.550;2023-04-29T01:55:58;95915;;;15.86;69.70
2711;BME280;20721;47.402;8.550;2023-04-29T01:56:59;95917;;;15.90;69.22
2711;BME280;20721;47.402;8.550;2023-04-29T01:57:58;95913;;;15.88;68.79
2711;BME280;20721;47.402;8.550;2023-04-29T01:58:58;95916;;;15.79;68.45
2711;BME280;20721;47.402;8.550;2023-04-29T01:59:58;95917;;;15.76;68.90
2711;BME280;20721;47.402;8.550;2023-04-29T02:00:58;95918;;;15.81;68.84
2711;BME280;20721;47.402;8.550;2023-04-29T02:01:58;95920;;;15.87;68.76
2711;BME280;20721;47.402;8.550;2023-04-29T02:02:58;95924;;;15.93;68.69
2711;BME280;20721;47.402;8.550;2023-04-29T02:03:58;95929;;;15.97;68.92
2711;BME280;20721;47.402;8.550;2023-04-29T02:04:59;95928;;;16.02;68.53
2711;BME280;20721;47.402;8.550;2023-04-29T02:05:58;95926;;;16.06;68.50
2711;BME280;20721;47.402;8.550;2023-04-29T02:06:58;95927;;;16.11;68.73
2711;BME280;20721;47.402;8.550;2023-04-29T02:07:59;95929;;;16.13;68.77
2711;BME280;20721;47.402;8.550;2023-04-29T02:08:58;95929;;;16.15;68.88
2711;BME280;20721;47.402;8.550;2023-04-29T02:09:58;95926;;;16.18;68.93
2711;BME280;20721;47.402;8.550;2023-04-29T02:10:59;95929;;;16.20;68.99
2711;BME280;20721;47.402;8.550;2023-04-29T02:11:58;95930;;;16.21;68.89
2711;BME280;20721;47.402;8.550;2023-04-29T02:12:58;95933;;;16.22;68.93
2711;BME280;20721;47.402;8.550;2023-04-29T02:13:58;95933;;;16.23;68.96
2711;BME280;20721;47.402;8.550;2023-04-29T02:14:59;95931;;;16.25;68.80
2711;BME280;20721;47.402;8.550;2023-04-29T02:16:06;95932;;;16.27;68.86
2711;BME280;20721;47.402;8.550;2023-04-29T02:17:59;95931;;;16.28;68.76
2711;BME280;20721;47.402;8.550;2023-04-29T02:18:58;95926;;;16.29;68.72
2711;BME280;20721;47.402;8.550;2023-04-29T02:19:58;95922;;;16.28;68.89
2711;BME280;20721;47.402;8.550;2023-04-29T02:21:58;95923;;;16.27;69.01
2711;BME280;20721;47.402;8.550;2023-04-29T02:22:58;95924;;;16.18;69.08
2711;BME280;20721;47.402;8.550;2023-04-29T02:23:58;95924;;;16.05;69.52
2711;BME280;20721;47.402;8.550;2023-04-29T02:25:00;95924;;;15.97;69.82
2711;BME280;20721;47.402;8.550;2023-04-29T02:25:58;95923;;;15.85;70.23
2711;BME280;20721;47.402;8.550;2023-04-29T02:26:58;95920;;;15.75;70.69
2711;BME280;20721;47.402;8.550;2023-04-29T02:27:58;95917;;;15.72;70.98
2711;BME280;20721;47.402;8.550;2023-04-29T02:31:58;95912;;;15.67;71.28
2711;BME280;20721;47.402;8.550;2023-04-29T02:32:58;95912;;;15.64;71.47
2711;BME280;20721;47.402;8.550;2023-04-29T02:33:59;95912;;;15.67;71.60
2711;BME280;20721;47.402;8.550;2023-04-29T02:34:58;95910;;;15.75;71.39
2711;BME280;20721;47.402;8.550;2023-04-29T02:35:58;95913;;;15.84;71.20
2711;BME280;20721;47.402;8.550;2023-04-29T02:36:58;95911;;;15.92;70.87
2711;BME280;20721;47.402;8.550;2023-04-29T02:37:58;95911;;;15.96;70.30
2711;BME280;20721;47.402;8.550;2023-04-29T02:38:59;95915;;;15.91;70.19
2711;BME280;20721;47.402;8.550;2023-04-29T02:39:58;95912;;;15.92;70.27
2711;BME280;20721;47.402;8.550;2023-04-29T02:40:58;95914;;;15.95;70.12
2711;BME280;20721;47.402;8.550;2023-04-29T02:43:00;95912;;;15.97;69.68
2711;BME280;20721;47.402;8.550;2023-04-29T02:44:58;95917;;;15.98;69.70
2711;BME280;20721;47.402;8.550;2023-04-29T02:45:59;95916;;;16.01;69.42
2711;BME280;20721;47.402;8.550;2023-04-29T02:47:58;95911;;;16.04;69.22
2711;BME280;20721;47.402;8.550;2023-04-29T02:48:59;95910;;;15.91;68.83
2711;BME280;20721;47.402;8.550;2023-04-29T02:49:58;95913;;;15.84;69.44
2711;BME280;20721;47.402;8.550;2023-04-29T02:50:58;95909;;;15.82;69.32
2711;BME280;20721;47.402;8.550;2023-04-29T02:51:58;95908;;;15.83;68.88
2711;BME280;20721;47.402;8.550;2023-04-29T02:52:58;95905;;;15.87;68.89
2711;BME280;20721;47.402;8.550;2023-04-29T02:53:58;95903;;;15.91;68.65
2711;BME280;20721;47.402;8.550;2023-04-29T02:54:59;95903;;;15.95;68.21
2711;BME280;20721;47.402;8.550;2023-04-29T02:55:58;95899;;;16.00;68.00
2711;BME280;20721;47.402;8.550;2023-04-29T02:56:58;95901;;;16.04;67.96
2711;BME280;20721;47.402;8.550;2023-04-29T02:58:59;95905;;;16.05;68.27
2711;BME280;20721;47.402;8.550;2023-04-29T02:59:58;95907;;;16.06;68.22
2711;BME280;20721;47.402;8.550;2023-04-29T03:00:59;95910;;;16.08;68.04
2711;BME280;20721;47.402;8.550;2023-04-29T03:01:59;95911;;;16.09;67.60
2711;BME280;20721;47.402;8.550;2023-04-29T03:02:59;95910;;;16.11;67.79
2711;BME280;20721;47.402;8.550;2023-04-29T03:03:59;95910;;;16.13;67.87
2711;BME280;20721;47.402;8.550;2023-04-29T03:04:58;95911;;;16.14;68.04
2711;BME280;20721;47.402;8.550;2023-04-29T03:05:58;95913;;;16.15;67.89
2711;BME280;20721;47.402;8.550;2023-04-29T03:07:01;95911;;;16.16;67.91
2711;BME280;20721;47.402;8.550;2023-04-29T03:07:58;95909;;;16.15;67.78
2711;BME280;20721;47.402;8.550;2023-04-29T03:08:58;95909;;;16.13;67.50
2711;BME280;20721;47.402;8.550;2023-04-29T03:09:59;95907;;;16.10;67.64
2711;BME280;20721;47.402;8.550;2023-04-29T03:10:59;95907;;;16.06;67.81
2711;BME280;20721;47.402;8.550;2023-04-29T03:11:59;95909;;;15.91;67.25
2711;BME280;20721;47.402;8.550;2023-04-29T03:12:59;95912;;;15.81;67.86
2711;BME280;20721;47.402;8.550;2023-04-29T03:14:00;95910;;;15.80;68.11
2711;BME280;20721;47.402;8.550;2023-04-29T03:14:58;95912;;;15.81;68.39
2711;BME280;20721;47.402;8.550;2023-04-29T03:15:59;95912;;;15.85;68.04
2711;BME280;20721;47.402;8.550;2023-04-29T03:18:00;95912;;;15.88;68.17
2711;BME280;20721;47.402;8.550;2023-04-29T03:18:58;95913;;;15.90;68.34
2711;BME280;20721;47.402;8.550;2023-04-29T03:19:59;95912;;;15.78;68.42
2711;BME280;20721;47.402;8.550;2023-04-29T03:20:59;95913;;;15.67;68.78
2711;BME280;20721;47.402;8.550;2023-04-29T03:21:59;95914;;;15.61;69.06
2711;BME280;20721;47.402;8.550;2023-04-29T03:22:59;95913;;;15.52;69.17
2711;BME280;20721;47.402;8.550;2023-04-29T03:24:59;95907;;;15.47;69.34
2711;BME280;20721;47.402;8.550;2023-04-29T03:26:00;95905;;;15.43;69.61
2711;BME280;20721;47.402;8.550;2023-04-29T03:27:00;95904;;;15.41;69.44
2711;BME280;20721;47.402;8.550;2023-04-29T03:27:58;95904;;;15.31;69.48
2711;BME280;20721;47.402;8.550;2023-04-29T03:28:59;95903;;;15.34;69.76
2711;BME280;20721;47.402;8.550;2023-04-29T03:30:59;95902;;;15.38;69.62
2711;BME280;20721;47.402;8.550;2023-04-29T03:31:59;95902;;;15.40;69.13
2711;BME280;20721;47.402;8.550;2023-04-29T03:32:59;95900;;;15.43;68.83
2711;BME280;20721;47.402;8.550;2023-04-29T03:33:59;95893;;;15.45;68.63
2711;BME280;20721;47.402;8.550;2023-04-29T03:34:58;95892;;;15.49;68.48
2711;BME280;20721;47.402;8.550;2023-04-29T03:35:59;95887;;;15.52;68.48
2711;BME280;20721;47.402;8.550;2023-04-29T03:36:59;95885;;;15.57;68.54
2711;BME280;20721;47.402;8.550;2023-04-29T03:37:59;95885;;;15.61;68.25
2711;BME280;20721;47.402;8.550;2023-04-29T03:38:59;95883;;;15.59;67.72
2711;BME280;20721;47.402;8.550;2023-04-29T03:39:59;95884;;;15.53;67.82
2711;BME280;20721;47.402;8.550;2023-04-29T03:40:59;95884;;;15.46;67.81
2711;BME280;20721;47.402;8.550;2023-04-29T03:41:59;95880;;;15.47;68.05
2711;BME280;20721;47.402;8.550;2023-04-29T03:43:00;95883;;;15.51;67.79
2711;BME280;20721;47.402;8.550;2023-04-29T03:44:01;95884;;;15.50;67.34
2711;BME280;20721;47.402;8.550;2023-04-29T03:44:59;95880;;;15.47;67.54
2711;BME280;20721;47.402;8.550;2023-04-29T03:45:59;95883;;;15.52;67.73
2711;BME280;20721;47.402;8.550;2023-04-29T03:47:59;95878;;;15.51;67.44
2711;BME280;20721;47.402;8.550;2023-04-29T03:48:59;95879;;;15.52;67.68
2711;BME280;20721;47.402;8.550;2023-04-29T03:49:59;95878;;;15.54;67.61
2711;BME280;20721;47.402;8.550;2023-04-29T03:50:59;95882;;;15.59;67.44
2711;BME280;20721;47.402;8.550;2023-04-29T03:51:59;95880;;;15.64;67.23
2711;BME280;20721;47.402;8.550;2023-04-29T03:52:59;95881;;;15.69;67.26
2711;BME280;20721;47.402;8.550;2023-04-29T03:53:59;95881;;;15.63;66.87
2711;BME280;20721;47.402;8.550;2023-04-29T03:54:59;95882;;;15.52;67.02
2711;BME280;20721;47.402;8.550;2023-04-29T03:55:59;95879;;;15.51;67.53
2711;BME280;20721;47.402;8.550;2023-04-29T03:56:59;95884;;;15.49;67.46
2711;BME280;20721;47.402;8.550;2023-04-29T03:57:59;95879;;;15.38;67.51
2711;BME280;20721;47.402;8.550;2023-04-29T03:58:59;95879;;;15.35;67.86
2711;BME280;20721;47.402;8.550;2023-04-29T03:59:59;95876;;;15.34;67.96
2711;BME280;20721;47.402;8.550;2023-04-29T04:00:59;95874;;;15.33;68.13
2711;BME280;20721;47.402;8.550;2023-04-29T04:01:59;95870;;;15.29;68.04
2711;BME280;20721;47.402;8.550;2023-04-29T04:02:59;95873;;;15.27;68.09
2711;BME280;20721;47.402;8.550;2023-04-29T04:03:59;95874;;;15.25;68.11
2711;BME280;20721;47.402;8.550;2023-04-29T04:04:59;95880;;;15.23;68.26
2711;BME280;20721;47.402;8.550;2023-04-29T04:05:59;95882;;;15.16;68.52
2711;BME280;20721;47.402;8.550;2023-04-29T04:06:59;95885;;;15.18;68.71
2711;BME280;20721;47.402;8.550;2023-04-29T04:07:59;95885;;;15.17;68.75
2711;BME280;20721;47.402;8.550;2023-04-29T04:08:59;95889;;;15.22;68.79
2711;BME280;20721;47.402;8.550;2023-04-29T04:09:59;95888;;;15.25;68.93
2711;BME280;20721;47.402;8.550;2023-04-29T04:11:02;95890;;;15.26;69.14
2711;BME280;20721;47.402;8.550;2023-04-29T04:11:59;95893;;;15.29;69.11
2711;BME280;20721;47.402;8.550;2023-04-29T04:12:59;95893;;;15.35;69.04
2711;BME280;20721;47.402;8.550;2023-04-29T04:13:59;95894;;;15.40;69.11
2711;BME280;20721;47.402;8.550;2023-04-29T04:14:59;95893;;;15.45;69.00
2711;BME280;20721;47.402;8.550;2023-04-29T04:15:59;95894;;;15.49;68.94
2711;BME280;20721;47.402;8.550;2023-04-29T04:16:59;95895;;;15.53;68.94
2711;BME280;20721;47.402;8.550;2023-04-29T04:18:59;95896;;;15.54;68.92
2711;BME280;20721;47.402;8.550;2023-04-29T04:21:05;95899;;;15.55;69.01
2711;BME280;20721;47.402;8.550;2023-04-29T04:21:59;95895;;;15.56;68.96
2711;BME280;20721;47.402;8.550;2023-04-29T04:22:59;95898;;;15.55;69.03
2711;BME280;20721;47.402;8.550;2023-04-29T04:23:59;95900;;;15.58;68.59
2711;BME280;20721;47.402;8.550;2023-04-29T04:24:59;95901;;;15.57;68.65
2711;BME280;20721;47.402;8.550;2023-04-29T04:26:59;95911;;;15.58;68.83
2711;BME280;20721;47.402;8.550;2023-04-29T04:27:59;95912;;;15.59;68.92
2711;BME280;20721;47.402;8.550;2023-04-29T04:28:59;95915;;;15.61;68.89
2711;BME280;20721;47.402;8.550;2023-04-29T04:29:59;95915;;;15.62;68.94
2711;BME280;20721;47.402;8.550;2023-04-29T04:30:59;95917;;;15.65;68.92
2711;BME280;20721;47.402;8.550;2023-04-29T04:31:59;95917;;;15.67;68.94
2711;BME280;20721;47.402;8.550;2023-04-29T04:32:59;95914;;;15.69;68.84
2711;BME280;20721;47.402;8.550;2023-04-29T04:33:59;95918;;;15.70;68.73
2711;BME280;20721;47.402;8.550;2023-04-29T04:34:59;95922;;;15.69;68.64
2711;BME280;20721;47.402;8.550;2023-04-29T04:37:59;95924;;;15.70;68.71
2711;BME280;20721;47.402;8.550;2023-04-29T04:39:59;95928;;;15.71;68.60
2711;BME280;20721;47.402;8.550;2023-04-29T04:40:59;95927;;;15.73;68.49
2711;BME280;20721;47.402;8.550;2023-04-29T04:41:59;95931;;;15.74;68.54
2711;BME280;20721;47.402;8.550;2023-04-29T04:42:59;95931;;;15.75;68.57
2711;BME280;20721;47.402;8.550;2023-04-29T04:45:59;95938;;;15.77;68.43
2711;BME280;20721;47.402;8.550;2023-04-29T04:47:00;95937;;;15.78;68.34
2711;BME280;20721;47.402;8.550;2023-04-29T04:47:59;95935;;;15.79;68.20
2711;BME280;20721;47.402;8.550;2023-04-29T04:48:59;95938;;;15.69;68.47
2711;BME280;20721;47.402;8.550;2023-04-29T04:49:59;95938;;;15.60;68.73
2711;BME280;20721;47.402;8.550;2023-04-29T04:51:05;95940;;;15.54;68.91
2711;BME280;20721;47.402;8.550;2023-04-29T04:51:59;95939;;;15.51;69.06
2711;BME280;20721;47.402;8.550;2023-04-29T04:52:59;95941;;;15.50;69.14
2711;BME280;20721;47.402;8.550;2023-04-29T04:53:59;95939;;;15.52;69.12
2711;BME280;20721;47.402;8.550;2023-04-29T04:54:59;95936;;;15.54;69.13
2711;BME280;20721;47.402;8.550;2023-04-29T04:56:00;95941;;;15.58;68.99
2711;BME280;20721;47.402;8.550;2023-04-29T04:56:59;95935;;;15.62;68.81
2711;BME280;20721;47.402;8.550;2023-04-29T04:58:01;95938;;;15.64;68.74
2711;BME280;20721;47.402;8.550;2023-04-29T04:58:59;95941;;;15.66;68.77
2711;BME280;20721;47.402;8.550;2023-04-29T05:00:00;95941;;;15.68;68.83
2711;BME280;20721;47.402;8.550;2023-04-29T05:00:59;95939;;;15.73;68.82
2711;BME280;20721;47.402;8.550;2023-04-29T05:01:59;95945;;;15.76;68.68
2711;BME280;20721;47.402;8.550;2023-04-29T05:02:59;95946;;;15.80;68.57
2711;BME280;20721;47.402;8.550;2023-04-29T05:03:59;95945;;;15.83;68.29
2711;BME280;20721;47.402;8.550;2023-04-29T05:04:59;95946;;;15.85;68.28
2711;BME280;20721;47.402;8.550;2023-04-29T05:05:59;95946;;;15.88;68.18
2711;BME280;20721;47.402;8.550;2023-04-29T05:06:59;95946;;;15.91;68.15
2711;BME280;20721;47.402;8.550;2023-04-29T05:07:59;95949;;;15.94;68.30
2711;BME280;20721;47.402;8.550;2023-04-29T05:08:59;95947;;;15.97;67.99
2711;BME280;20721;47.402;8.550;2023-04-29T05:09:59;95950;;;15.99;67.89
2711;BME280;20721;47.402;8.550;2023-04-29T05:11:59;95951;;;16.01;67.98
2711;BME280;20721;47.402;8.550;2023-04-29T05:13:59;95950;;;16.04;67.73
2711;BME280;20721;47.402;8.550;2023-04-29T05:14:59;95951;;;16.05;67.64
2711;BME280;20721;47.402;8.550;2023-04-29T05:16:01;95953;;;16.07;67.67
2711;BME280;20721;47.402;8.550;2023-04-29T05:16:59;95954;;;16.10;67.71
2711;BME280;20721;47.402;8.550;2023-04-29T05:17:59;95958;;;16.14;67.62
2711;BME280;20721;47.402;8.550;2023-04-29T05:18:59;95962;;;16.17;67.51
2711;BME280;20721;47.402;8.550;2023-04-29T05:19:59;95962;;;16.22;67.51
2711;BME280;20721;47.402;8.550;2023-04-29T05:20:59;95961;;;16.27;67.35
2711;BME280;20721;47.402;8.550;2023-04-29T05:21:59;95961;;;16.31;67.13
2711;BME280;20721;47.402;8.550;2023-04-29T05:22:59;95961;;;16.36;67.06
2711;BME280;20721;47.402;8.550;2023-04-29T05:23:59;95959;;;16.40;66.89
2711;BME280;20721;47.402;8.550;2023-04-29T05:25:02;95958;;;16.42;66.72
2711;BME280;20721;47.402;8.550;2023-04-29T05:25:59;95960;;;16.45;66.63
2711;BME280;20721;47.402;8.550;2023-04-29T05:27:59;95961;;;16.48;66.50
2711;BME280;20721;47.402;8.550;2023-04-29T05:29:00;95965;;;16.52;66.44
2711;BME280;20721;47.402;8.550;2023-04-29T05:30:00;95962;;;16.56;66.39
2711;BME280;20721;47.402;8.550;2023-04-29T05:30:59;95963;;;16.50;66.41
2711;BME280;20721;47.402;8.550;2023-04-29T05:31:59;95967;;;16.48;66.60
2711;BME280;20721;47.402;8.550;2023-04-29T05:32:59;95966;;;16.47;66.31
2711;BME280;20721;47.402;8.550;2023-04-29T05:35:02;95968;;;16.53;66.90
2711;BME280;20721;47.402;8.550;2023-04-29T05:35:59;95968;;;16.59;66.74
2711;BME280;20721;47.402;8.550;2023-04-29T05:36:59;95968;;;16.67;66.56
2711;BME280;20721;47.402;8.550;2023-04-29T05:37:59;95968;;;16.72;66.53
2711;BME280;20721;47.402;8.550;2023-04-29T05:38:59;95965;;;16.80;66.25
2711;BME280;20721;47.402;8.550;2023-04-29T05:39:59;95969;;;16.86;65.93
2711;BME280;20721;47.402;8.550;2023-04-29T05:40:59;95967;;;16.88;65.38
2711;BME280;20721;47.402;8.550;2023-04-29T05:41:59;95965;;;16.85;64.84
2711;BME280;20721;47.402;8.550;2023-04-29T05:42:59;95967;;;16.82;64.95
2711;BME280;20721;47.402;8.550;2023-04-29T05:44:59;95970;;;16.85;65.20
2711;BME280;20721;47.402;8.550;2023-04-29T05:45:59;95969;;;16.88;65.30
2711;BME280;20721;47.402;8.550;2023-04-29T05:46:59;95970;;;16.91;65.24
2711;BME280;20721;47.402;8.550;2023-04-29T05:47:59;95969;;;16.94;65.30
2711;BME280;20721;47.402;8.550;2023-04-29T05:48:59;95971;;;16.92;65.12
2711;BME280;20721;47.402;8.550;2023-04-29T05:49:59;95970;;;16.95;65.39
2711;BME280;20721;47.402;8.550;2023-04-29T05:50:59;95973;;;17.00;65.00
2711;BME280;20721;47.402;8.550;2023-04-29T05:52:03;95974;;;17.04;65.03
2711;BME280;20721;47.402;8.550;2023-04-29T05:52:59;95977;;;17.11;64.68
2711;BME280;20721;47.402;8.550;2023-04-29T05:53:59;95976;;;17.18;64.54
2711;BME280;20721;47.402;8.550;2023-04-29T05:54:59;95974;;;17.25;64.73
2711;BME280;20721;47.402;8.550;2023-04-29T05:55:59;95971;;;17.30;64.54
2711;BME280;20721;47.402;8.550;2023-04-29T05:57:01;95973;;;17.35;64.66
2711;BME280;20721;47.402;8.550;2023-04-29T05:57:59;95976;;;17.40;64.43
2711;BME280;20721;47.402;8.550;2023-04-29T05:58:59;95975;;;17.49;64.46
2711;BME280;20721;47.402;8.550;2023-04-29T05:59:59;95981;;;17.57;64.01
2711;BME280;20721;47.402;8.550;2023-04-29T06:01:00;95979;;;17.64;64.00
2711;BME280;20721;47.402;8.550;2023-04-29T06:01:59;95979;;;17.71;63.67
2711;BME280;20721;47.402;8.550;2023-04-29T06:02:59;95983;;;17.82;63.61
2711;BME280;20721;47.402;8.550;2023-04-29T06:04:00;95983;;;17.91;63.48
2711;BME280;20721;47.402;8.550;2023-04-29T06:05:00;95986;;;18.02;63.10
2711;BME280;20721;47.402;8.550;2023-04-29T06:05:59;95984;;;18.09;62.89
2711;BME280;20721;47.402;8.550;2023-04-29T06:06:59;95986;;;18.18;62.78
2711;BME280;20721;47.402;8.550;2023-04-29T06:07:59;95985;;;18.29;62.67
2711;BME280;20721;47.402;8.550;2023-04-29T06:08:59;95980;;;18.35;62.08
2711;BME280;20721;47.402;8.550;2023-04-29T06:09:59;95984;;;18.37;61.73
2711;BME280;20721;47.402;8.550;2023-04-29T06:10:59;95986;;;18.38;61.35
2711;BME280;20721;47.402;8.550;2023-04-29T06:12:02;95986;;;18.45;61.17
2711;BME280;20721;47.402;8.550;2023-04-29T06:12:59;95986;;;18.54;60.90
2711;BME280;20721;47.402;8.550;2023-04-29T06:13:59;95989;;;18.65;60.77
2711;BME280;20721;47.402;8.550;2023-04-29T06:14:59;95990;;;18.80;60.64
2711;BME280;20721;47.402;8.550;2023-04-29T06:15:59;95986;;;18.96;60.53
2711;BME280;20721;47.402;8.550;2023-04-29T06:16:59;95989;;;19.12;60.35
2711;BME280;20721;47.402;8.550;2023-04-29T06:17:59;95989;;;19.29;60.16